Time;durP1;ratioP1;P1;durP2;ratioP2;P2;SDS_P1;SDS_P2;PMS_P1;PMS_P2;Temp;Humidity;BMP_temperature;BMP_pressure;BME280_temperature;BME280_humidity;BME280_pressure;Samples;Min_cycle;Max_cycle;Signal;HPM_P1;HPM_P2
2022/05/11 00:01:52;;;;;;;0.00;0.00;;;13.20;99.90;;;;;;5095650;28;20076;-85
2022/05/11 00:04:19;;;;;;;0.08;0.08;;;13.20;99.90;;;;;;5080066;28;20169;-85
2022/05/11 00:06:46;;;;;;;0.00;0.00;;;13.10;99.90;;;;;;5113269;28;20056;-84
2022/05/11 00:09:13;;;;;;;0.00;0.00;;;13.10;99.90;;;;;;5113851;28;20044;-85
2022/05/11 00:11:42;;;;;;;0.05;0.05;;;13.10;99.90;;;;;;5113184;28;20086;-85
2022/05/11 00:14:09;;;;;;;0.00;0.00;;;13.10;99.90;;;;;;5113707;28;20043;-86
2022/05/11 00:16:36;;;;;;;0.10;0.10;;;13.10;99.90;;;;;;5096716;28;20040;-85
2022/05/11 00:19:03;;;;;;;0.05;0.05;;;13.20;99.90;;;;;;5096967;28;20032;-86
2022/05/11 00:21:30;;;;;;;0.10;0.10;;;13.20;99.90;;;;;;5113270;28;20255;-86
2022/05/11 00:23:57;;;;;;;0.00;0.00;;;13.20;99.90;;;;;;5096682;28;20132;-86
2022/05/11 00:26:24;;;;;;;0.00;0.00;;;13.20;99.90;;;;;;5096661;28;20138;-86
2022/05/11 00:28:51;;;;;;;0.10;0.10;;;13.20;99.90;;;;;;5097626;28;20052;-87
2022/05/11 00:31:18;;;;;;;0.00;0.00;;;13.20;99.90;;;;;;5097101;28;20070;-86
2022/05/11 00:33:44;;;;;;;0.00;0.00;;;13.20;99.90;;;;;;5079816;28;20075;-86
2022/05/11 00:36:12;;;;;;;0.08;0.08;;;13.20;99.90;;;;;;5080303;28;20044;-87
2022/05/11 00:38:40;;;;;;;0.00;0.00;;;13.20;99.90;;;;;;5080270;28;20032;-84
2022/05/11 00:41:07;;;;;;;0.00;0.00;;;13.20;99.90;;;;;;5079784;28;20135;-85
2022/05/11 00:43:38;;;;;;;0.03;0.03;;;13.20;99.90;;;;;;5107770;28;20040;-85
2022/05/11 00:46:59;;;;;;;0.00;0.00;;;13.20;99.90;;;;;;5134679;28;20046;-86
2022/05/11 00:49:39;;;;;;;0.10;0.10;;;13.20;99.90;;;;;;5058408;28;20127;-85
2022/05/11 00:52:14;;;;;;;0.10;0.10;;;13.20;99.90;;;;;;5071415;28;20052;-87
2022/05/11 00:54:48;;;;;;;0.00;0.00;;;13.20;99.90;;;;;;5090091;28;20048;-87
2022/05/11 00:57:25;;;;;;;0.00;0.00;;;13.20;99.90;;;;;;5113224;28;20494;-84
2022/05/11 01:03:50;;;;;;;0.00;0.00;;;13.20;99.90;;;;;;5130639;28;20130;-86
2022/05/11 01:06:19;;;;;;;0.00;0.00;;;13.30;99.90;;;;;;5129884;28;20054;-85
2022/05/11 01:08:45;;;;;;;0.05;0.03;;;13.20;99.90;;;;;;5120989;28;20509;-86
2022/05/11 01:11:13;;;;;;;0.00;0.00;;;13.20;99.90;;;;;;5094540;28;20047;-85
2022/05/11 01:13:43;;;;;;;0.03;0.03;;;13.20;99.90;;;;;;5078282;28;20447;-85
2022/05/11 01:16:10;;;;;;;0.22;0.22;;;13.30;99.90;;;;;;5111469;28;20461;-85
2022/05/11 01:18:39;;;;;;;0.00;0.00;;;13.20;99.90;;;;;;5120037;28;20507;-84
2022/05/11 01:21:07;;;;;;;0.00;0.00;;;13.20;99.90;;;;;;5131803;28;20067;-87
2022/05/11 01:23:49;;;;;;;0.00;0.00;;;13.20;99.90;;;;;;5114469;28;20045;-85
2022/05/11 01:26:18;;;;;;;0.00;0.00;;;13.20;99.90;;;;;;5132337;28;20100;-86
2022/05/11 01:28:49;;;;;;;0.00;0.00;;;13.20;99.90;;;;;;5132558;28;20476;-87
2022/05/11 01:31:16;;;;;;;0.00;0.00;;;13.20;99.90;;;;;;5132244;28;20039;-85
2022/05/11 01:33:47;;;;;;;0.00;0.00;;;13.20;99.90;;;;;;5131563;28;20443;-87
2022/05/11 01:36:32;;;;;;;0.00;0.00;;;13.10;99.90;;;;;;5148588;28;20119;-87
2022/05/11 01:39:05;;;;;;;0.10;0.10;;;13.10;99.90;;;;;;5131247;28;20092;-85
2022/05/11 01:41:37;;;;;;;0.10;0.10;;;13.10;99.90;;;;;;5131485;28;20039;-87
2022/05/11 01:44:07;;;;;;;0.03;0.03;;;13.10;99.90;;;;;;5128313;28;20154;-85
2022/05/11 01:46:35;;;;;;;0.10;0.10;;;13.00;99.90;;;;;;5110801;28;20047;-88
2022/05/11 01:49:02;;;;;;;0.00;0.00;;;13.10;99.90;;;;;;5110937;28;20044;-85
2022/05/11 01:51:29;;;;;;;0.03;0.03;;;13.00;99.90;;;;;;5094121;28;20055;-86
2022/05/11 01:53:56;;;;;;;0.00;0.00;;;13.00;99.90;;;;;;5077853;28;20036;-87
2022/05/11 01:56:24;;;;;;;0.20;0.20;;;13.10;99.90;;;;;;5077693;28;20050;-86
2022/05/11 01:58:52;;;;;;;0.20;0.20;;;13.10;99.90;;;;;;5094387;28;20043;-87
2022/05/11 02:01:22;;;;;;;0.10;0.10;;;13.10;99.90;;;;;;5104428;28;20105;-86
2022/05/11 02:03:49;;;;;;;0.00;0.00;;;13.00;99.90;;;;;;5116953;28;20119;-85
2022/05/11 02:09:03;;;;;;;;;;;13.00;99.90;;;;;;5110791;28;1104213;-84
2022/05/11 02:11:30;;;;;;;0.00;0.00;;;13.00;99.90;;;;;;5122114;28;19938;-85
2022/05/11 02:13:58;;;;;;;0.10;0.10;;;13.00;99.90;;;;;;5128680;28;20054;-84
2022/05/11 02:16:26;;;;;;;0.08;0.08;;;13.00;99.90;;;;;;5111478;28;20043;-84
2022/05/11 02:18:54;;;;;;;0.10;0.10;;;13.00;99.90;;;;;;5112115;28;20082;-85
2022/05/11 02:21:21;;;;;;;0.10;0.10;;;13.00;99.90;;;;;;5095343;28;20040;-85
2022/05/11 02:23:50;;;;;;;0.03;0.03;;;13.00;99.90;;;;;;5094013;28;20032;-84
2022/05/11 02:26:19;;;;;;;0.00;0.00;;;13.00;99.90;;;;;;5095271;28;20054;-84
2022/05/11 02:28:50;;;;;;;0.00;0.00;;;13.00;99.90;;;;;;5111318;28;20040;-85
2022/05/11 02:31:17;;;;;;;0.00;0.00;;;13.00;99.90;;;;;;5095381;28;20043;-84
2022/05/11 02:33:44;;;;;;;0.10;0.10;;;13.00;99.90;;;;;;5094523;28;20044;-85
2022/05/11 02:36:11;;;;;;;0.10;0.10;;;13.00;99.90;;;;;;5094795;28;20047;-85
2022/05/11 02:38:41;;;;;;;0.00;0.00;;;12.90;99.90;;;;;;5095010;28;20044;-85
2022/05/11 02:41:08;;;;;;;0.00;0.00;;;12.90;99.90;;;;;;5094642;28;20480;-84
2022/05/11 02:43:34;;;;;;;0.10;0.10;;;13.00;99.90;;;;;;5093978;28;20036;-84
2022/05/11 02:46:01;;;;;;;0.10;0.10;;;13.00;99.90;;;;;;5093919;28;20123;-85
2022/05/11 02:48:31;;;;;;;0.10;0.10;;;13.00;99.90;;;;;;5110294;28;20039;-86
2022/05/11 02:51:03;;;;;;;0.65;0.38;;;13.00;99.90;;;;;;5110351;28;20036;-83
2022/05/11 02:53:31;;;;;;;0.08;0.08;;;13.00;99.90;;;;;;5110444;28;20040;-84
2022/05/11 02:55:59;;;;;;;0.10;0.10;;;13.00;99.90;;;;;;5110974;28;20036;-85
2022/05/11 02:58:29;;;;;;;0.10;0.10;;;13.00;99.90;;;;;;5094205;28;20040;-85
2022/05/11 03:00:58;;;;;;;0.10;0.10;;;13.00;99.90;;;;;;5110737;28;20064;-85
2022/05/11 03:03:33;;;;;;;0.00;0.00;;;13.00;99.90;;;;;;5110563;28;20082;-83
2022/05/11 03:06:01;;;;;;;0.13;0.13;;;13.00;99.90;;;;;;5111611;28;20123;-84
2022/05/11 03:08:29;;;;;;;0.25;0.10;;;13.00;99.90;;;;;;5110772;28;20048;-85
2022/05/11 03:10:56;;;;;;;0.10;0.10;;;13.00;99.90;;;;;;5110520;28;20085;-84
2022/05/11 03:13:22;;;;;;;0.00;0.00;;;13.00;99.90;;;;;;5093506;28;20044;-83
2022/05/11 03:15:49;;;;;;;0.10;0.10;;;13.10;99.90;;;;;;5093383;28;20044;-83
2022/05/11 03:18:16;;;;;;;0.10;0.10;;;13.00;99.90;;;;;;5093569;28;20079;-84
2022/05/11 03:20:42;;;;;;;0.00;0.00;;;13.00;99.90;;;;;;5093277;28;20040;-84
2022/05/11 03:23:09;;;;;;;0.00;0.00;;;13.10;99.90;;;;;;5105553;28;20048;-84
2022/05/11 03:25:36;;;;;;;0.00;0.00;;;13.10;99.90;;;;;;5109933;28;20079;-84
2022/05/11 03:28:03;;;;;;;0.00;0.00;;;13.10;99.90;;;;;;5093322;28;20047;-84
2022/05/11 03:30:29;;;;;;;0.00;0.00;;;13.10;99.90;;;;;;5093811;28;20123;-84
2022/05/11 03:35:42;;;;;;;0.00;0.00;;;13.10;99.90;;;;;;5129402;28;20079;-86
2022/05/11 03:38:10;;;;;;;0.10;0.10;;;13.10;99.90;;;;;;5093761;28;20040;-85
2022/05/11 03:40:37;;;;;;;0.10;0.10;;;13.10;99.90;;;;;;5092945;28;20094;-84
2022/05/11 03:43:04;;;;;;;0.00;0.00;;;13.10;99.90;;;;;;5093599;28;20048;-85
2022/05/11 03:45:32;;;;;;;0.10;0.10;;;13.10;99.90;;;;;;5109955;28;20036;-83
2022/05/11 03:47:58;;;;;;;0.08;0.08;;;13.10;99.90;;;;;;5110035;28;20032;-85
2022/05/11 03:50:25;;;;;;;0.13;0.13;;;13.10;99.90;;;;;;5112533;28;20571;-85
2022/05/11 03:52:53;;;;;;;0.10;0.10;;;13.10;99.90;;;;;;5096849;28;20509;-84
2022/05/11 03:55:22;;;;;;;0.00;0.00;;;13.10;99.90;;;;;;5129481;28;20039;-84
2022/05/11 03:57:49;;;;;;;0.10;0.10;;;13.10;99.90;;;;;;5129985;28;20039;-84
2022/05/11 04:00:22;;;;;;;0.00;0.00;;;13.10;99.90;;;;;;5129793;28;20118;-84
2022/05/11 04:02:49;;;;;;;0.10;0.10;;;13.10;99.90;;;;;;5130279;28;20057;-85
2022/05/11 04:05:17;;;;;;;0.10;0.10;;;13.20;99.90;;;;;;5095813;28;20035;-85
2022/05/11 04:07:44;;;;;;;0.10;0.10;;;13.10;99.90;;;;;;5128961;28;20059;-84
2022/05/11 04:10:13;;;;;;;0.10;0.10;;;13.20;99.90;;;;;;5128883;28;20149;-85
2022/05/11 04:12:40;;;;;;;0.00;0.00;;;13.10;99.90;;;;;;5129938;28;20036;-84
2022/05/11 04:15:07;;;;;;;0.10;0.10;;;13.20;99.90;;;;;;5129532;28;20043;-83
2022/05/11 04:17:34;;;;;;;0.10;0.10;;;13.20;99.90;;;;;;5130536;28;20036;-84
2022/05/11 04:20:02;;;;;;;0.10;0.10;;;13.20;99.90;;;;;;5123713;28;20409;-85
2022/05/11 04:22:29;;;;;;;0.10;0.10;;;13.20;99.90;;;;;;5109573;28;20036;-84
2022/05/11 04:24:57;;;;;;;0.20;0.20;;;13.20;99.90;;;;;;5092735;28;20047;-86
2022/05/11 04:27:24;;;;;;;0.00;0.00;;;13.20;99.90;;;;;;5109823;28;20044;-85
2022/05/11 04:29:51;;;;;;;0.00;0.00;;;13.20;99.90;;;;;;5105052;28;20416;-84
2022/05/11 04:32:18;;;;;;;0.17;0.15;;;13.20;99.90;;;;;;5112881;28;20043;-83
2022/05/11 04:34:44;;;;;;;0.00;0.00;;;13.20;99.90;;;;;;5096442;28;20492;-84
2022/05/11 04:37:12;;;;;;;0.10;0.10;;;13.30;99.90;;;;;;5112962;28;20044;-85
2022/05/11 04:39:39;;;;;;;0.10;0.10;;;13.30;99.90;;;;;;5109810;28;20048;-85
2022/05/11 04:42:07;;;;;;;0.00;0.00;;;13.20;99.90;;;;;;5076215;28;20101;-85
2022/05/11 04:44:34;;;;;;;0.03;0.03;;;13.30;99.90;;;;;;5093089;28;20496;-84
2022/05/11 04:47:12;;;;;;;0.10;0.10;;;13.30;99.90;;;;;;5093921;28;20040;-85
2022/05/11 04:49:40;;;;;;;0.10;0.10;;;13.30;99.90;;;;;;5106502;28;20133;-83
2022/05/11 04:52:10;;;;;;;0.10;0.10;;;13.30;99.90;;;;;;5096567;28;20085;-85
2022/05/11 04:54:39;;;;;;;0.10;0.10;;;13.30;99.90;;;;;;5113182;28;20047;-87
2022/05/11 04:57:07;;;;;;;0.03;0.03;;;13.40;99.90;;;;;;5096699;28;20044;-83
2022/05/11 04:59:34;;;;;;;0.10;0.10;;;13.40;99.90;;;;;;5101862;28;20032;-85
2022/05/11 05:02:03;;;;;;;0.00;0.00;;;13.40;99.90;;;;;;5096769;28;20043;-84
2022/05/11 05:04:31;;;;;;;0.00;0.00;;;13.40;99.90;;;;;;5129436;28;20078;-83
2022/05/11 05:06:58;;;;;;;0.13;0.13;;;13.40;99.90;;;;;;5129394;28;20088;-84
2022/05/11 05:09:25;;;;;;;0.08;0.08;;;13.40;99.90;;;;;;5095563;28;20078;-83
2022/05/11 05:11:52;;;;;;;0.10;0.10;;;13.50;99.90;;;;;;5095873;28;20595;-84
2022/05/11 05:14:18;;;;;;;0.10;0.10;;;13.50;99.90;;;;;;5079166;28;20043;-84
2022/05/11 05:16:45;;;;;;;0.00;0.00;;;13.50;99.90;;;;;;5079586;28;20127;-85
2022/05/11 05:19:12;;;;;;;0.00;0.00;;;13.50;99.90;;;;;;5083746;28;20040;-83
2022/05/11 05:21:39;;;;;;;0.10;0.10;;;13.60;99.90;;;;;;5078976;28;20118;-85
2022/05/11 05:24:06;;;;;;;0.05;0.05;;;13.60;99.90;;;;;;5128769;28;20040;-85
2022/05/11 05:26:33;;;;;;;0.13;0.13;;;13.60;99.90;;;;;;5079414;28;20066;-84
2022/05/11 05:31:46;;;;;;;0.10;0.10;;;13.70;99.90;;;;;;5135095;28;20043;-85
2022/05/11 05:34:12;;;;;;;0.00;0.00;;;13.70;99.90;;;;;;5115946;28;20038;-85
2022/05/11 05:36:41;;;;;;;0.00;0.00;;;13.70;99.90;;;;;;5132503;28;20450;-85
2022/05/11 05:39:07;;;;;;;0.30;0.30;;;13.80;99.90;;;;;;5116047;28;20118;-85
2022/05/11 05:41:34;;;;;;;0.17;0.13;;;13.80;99.90;;;;;;5113388;28;20473;-84
2022/05/11 05:44:01;;;;;;;0.10;0.10;;;13.80;99.90;;;;;;5095071;28;20070;-83
2022/05/11 05:46:28;;;;;;;0.00;0.00;;;13.80;99.90;;;;;;5094841;28;20043;-85
2022/05/11 05:48:54;;;;;;;0.00;0.00;;;13.80;99.90;;;;;;5095930;28;20101;-85
2022/05/11 05:51:23;;;;;;;0.00;0.00;;;13.90;99.90;;;;;;5101626;28;20378;-85
2022/05/11 05:53:51;;;;;;;0.00;0.00;;;13.90;99.90;;;;;;5111687;28;20071;-85
2022/05/11 05:56:18;;;;;;;0.00;0.00;;;14.00;99.90;;;;;;5094943;28;20390;-85
2022/05/11 05:58:45;;;;;;;0.10;0.10;;;14.00;99.90;;;;;;5076953;28;20051;-84
2022/05/11 06:01:13;;;;;;;0.00;0.00;;;14.00;99.90;;;;;;5117205;28;20074;-85
2022/05/11 06:03:40;;;;;;;0.13;0.13;;;13.90;99.90;;;;;;5132101;28;20044;-82
2022/05/11 06:06:08;;;;;;;0.10;0.10;;;14.10;99.90;;;;;;5114713;28;20035;-84
2022/05/11 06:08:36;;;;;;;0.10;0.10;;;14.10;99.90;;;;;;5124361;28;20043;-86
2022/05/11 06:11:04;;;;;;;0.00;0.00;;;14.20;99.90;;;;;;5122384;28;20474;-84
2022/05/11 06:13:32;;;;;;;0.00;0.00;;;14.30;99.90;;;;;;5142755;28;20130;-84
2022/05/11 06:15:58;;;;;;;0.00;0.00;;;14.30;99.90;;;;;;5078066;28;20044;-83
2022/05/11 06:18:26;;;;;;;0.10;0.10;;;14.40;99.90;;;;;;5128884;28;20032;-88
2022/05/11 06:20:53;;;;;;;0.00;0.00;;;14.40;99.90;;;;;;5111370;28;20036;-87
2022/05/11 06:23:21;;;;;;;0.00;0.00;;;14.50;99.90;;;;;;5090094;28;20036;-87
2022/05/11 06:25:51;;;;;;;0.10;0.10;;;14.50;99.90;;;;;;5111805;28;20040;-87
2022/05/11 06:28:20;;;;;;;0.20;0.20;;;14.50;99.90;;;;;;5111346;28;20032;-87
2022/05/11 06:30:50;;;;;;;0.00;0.00;;;14.50;99.90;;;;;;5111367;28;20409;-87
2022/05/11 06:33:16;;;;;;;0.00;0.00;;;14.50;99.90;;;;;;5095618;28;20040;-84
2022/05/11 06:35:44;;;;;;;0.00;0.00;;;14.50;99.90;;;;;;5091238;28;20048;-84
2022/05/11 06:38:11;;;;;;;0.00;0.00;;;14.60;99.90;;;;;;5095142;28;20083;-87
2022/05/11 06:40:38;;;;;;;0.00;0.00;;;14.60;99.90;;;;;;5119056;28;20036;-84
2022/05/11 06:43:06;;;;;;;0.00;0.00;;;14.70;99.90;;;;;;5116064;28;20126;-84
2022/05/11 06:45:33;;;;;;;0.35;0.30;;;14.70;99.90;;;;;;5098237;28;20024;-88
2022/05/11 06:48:00;;;;;;;0.00;0.00;;;14.80;99.90;;;;;;5112450;28;20040;-83
2022/05/11 06:50:27;;;;;;;0.00;0.00;;;14.90;99.90;;;;;;5128899;28;20032;-84
2022/05/11 06:52:55;;;;;;;0.00;0.00;;;14.90;99.90;;;;;;5103406;28;20036;-83
2022/05/11 07:00:54;;;;;;;0.00;0.00;;;15.20;99.90;;;;;;5128370;28;20047;-90
2022/05/11 07:03:21;;;;;;;0.20;0.10;;;15.40;99.90;;;;;;5077850;28;20512;-90
2022/05/11 07:05:47;;;;;;;0.00;0.00;;;15.40;99.90;;;;;;5086348;28;20035;-85
2022/05/11 07:08:14;;;;;;;0.60;0.20;;;15.40;99.90;;;;;;5130783;28;20561;-91
2022/05/11 07:10:42;;;;;;;0.00;0.00;;;15.40;99.90;;;;;;5088973;28;20122;-86
2022/05/11 07:13:10;;;;;;;0.08;0.08;;;15.50;99.90;;;;;;5127752;28;20043;-91
2022/05/11 07:15:36;;;;;;;0.10;0.10;;;15.50;99.90;;;;;;5083630;28;20063;-86
2022/05/11 07:18:03;;;;;;;0.08;0.08;;;15.50;99.90;;;;;;5107019;28;20082;-86
2022/05/11 07:20:39;;;;;;;0.00;0.00;;;15.40;99.90;;;;;;5104452;28;20039;-86
2022/05/11 07:23:07;;;;;;;0.00;0.00;;;15.50;99.90;;;;;;5128360;28;20407;-85
2022/05/11 07:25:34;;;;;;;0.10;0.10;;;15.50;99.90;;;;;;5124758;28;20039;-86
2022/05/11 07:28:03;;;;;;;0.10;0.10;;;15.50;99.90;;;;;;5106789;28;20040;-90
2022/05/11 07:30:33;;;;;;;0.00;0.00;;;15.50;99.90;;;;;;5124667;28;20069;-86
2022/05/11 07:33:01;;;;;;;0.00;0.00;;;15.50;99.90;;;;;;5131054;28;20188;-91
2022/05/11 07:35:31;;;;;;;0.10;0.10;;;15.50;99.90;;;;;;5144053;28;20489;-89
2022/05/11 07:37:59;;;;;;;0.00;0.00;;;15.60;99.90;;;;;;5114332;28;20038;-91
2022/05/11 07:40:26;;;;;;;0.00;0.00;;;15.70;99.90;;;;;;5114212;28;20031;-90
2022/05/11 07:42:54;;;;;;;0.00;0.00;;;15.80;99.90;;;;;;5131081;28;20127;-85
2022/05/11 07:45:23;;;;;;;0.00;0.00;;;15.80;99.90;;;;;;5131476;28;20062;-84
2022/05/11 07:47:50;;;;;;;0.00;0.00;;;16.00;99.90;;;;;;5114695;28;20035;-87
2022/05/11 07:50:17;;;;;;;0.00;0.00;;;16.10;99.90;;;;;;5097728;28;20036;-93
2022/05/11 07:52:46;;;;;;;0.10;0.10;;;16.10;99.90;;;;;;5130673;28;20036;-89
2022/05/11 07:55:17;;;;;;;0.00;0.00;;;16.20;99.90;;;;;;5146225;28;20051;-85
2022/05/11 08:00:30;;;;;;;0.20;0.17;;;16.40;99.90;;;;;;5113456;28;20036;-88
2022/05/11 08:02:56;;;;;;;0.17;0.17;;;16.50;99.90;;;;;;5123505;28;20031;-85
2022/05/11 08:05:24;;;;;;;0.08;0.08;;;16.70;99.90;;;;;;5112630;28;20467;-84
2022/05/11 08:07:57;;;;;;;0.00;0.00;;;16.80;99.90;;;;;;5101062;28;20052;-86
2022/05/11 08:10:26;;;;;;;0.00;0.00;;;16.90;99.90;;;;;;5126156;28;20040;-86
2022/05/11 08:12:53;;;;;;;0.00;0.00;;;17.00;99.90;;;;;;5128234;28;20036;-87
2022/05/11 08:15:22;;;;;;;0.13;0.08;;;17.20;99.90;;;;;;5117705;28;20035;-83
2022/05/11 08:17:51;;;;;;;0.10;0.10;;;17.10;99.90;;;;;;5143028;28;20531;-82
2022/05/11 08:20:25;;;;;;;0.00;0.00;;;17.00;99.90;;;;;;5093327;28;20051;-89
2022/05/11 08:22:52;;;;;;;0.03;0.03;;;16.80;99.90;;;;;;5129690;28;20071;-93
2022/05/11 08:25:23;;;;;;;1.35;0.25;;;16.70;99.90;;;;;;5118018;28;20122;-85
2022/05/11 08:27:51;;;;;;;0.10;0.10;;;16.80;99.90;;;;;;5134263;28;20035;-83
2022/05/11 08:33:26;;;;;;;0.10;0.10;;;16.90;99.90;;;;;;5150868;28;20048;-88
2022/05/11 08:36:01;;;;;;;0.20;0.20;;;17.00;99.90;;;;;;5150784;28;20583;-86
2022/05/11 08:38:32;;;;;;;0.05;0.05;;;17.00;99.90;;;;;;5133791;28;20507;-86
2022/05/11 08:41:11;;;;;;;0.00;0.00;;;17.10;99.90;;;;;;5133343;28;20036;-86
2022/05/11 08:43:38;;;;;;;0.00;0.00;;;17.10;99.90;;;;;;5134009;28;20047;-88
2022/05/11 08:46:14;;;;;;;0.10;0.10;;;17.20;99.90;;;;;;5116677;28;20032;-86
2022/05/11 08:48:58;;;;;;;0.13;0.13;;;17.40;99.90;;;;;;5150610;28;20412;-89
2022/05/11 08:52:04;;;;;;;0.63;0.22;;;17.60;99.90;;;;;;5133637;28;20039;-89
2022/05/11 08:54:39;;;;;;;0.00;0.00;;;17.90;99.90;;;;;;5150250;28;20048;-86
2022/05/11 08:57:23;;;;;;;1.98;0.20;;;17.80;99.90;;;;;;5134238;28;20134;-88
2022/05/11 08:59:57;;;;;;;0.45;0.28;;;17.90;99.90;;;;;;5133789;28;20039;-87
2022/05/11 09:02:42;;;;;;;0.10;0.10;;;17.80;99.90;;;;;;5133651;28;20042;-89
2022/05/11 09:05:11;;;;;;;0.00;0.00;;;17.90;99.90;;;;;;5133328;28;20044;-88
2022/05/11 09:07:41;;;;;;;0.10;0.10;;;17.80;99.90;;;;;;5116972;28;20096;-88
2022/05/11 09:10:08;;;;;;;0.10;0.10;;;17.90;99.90;;;;;;5133994;28;20043;-88
2022/05/11 09:12:36;;;;;;;0.30;0.20;;;17.80;99.90;;;;;;5133768;28;20036;-88
2022/05/11 09:15:04;;;;;;;1.38;0.30;;;17.80;99.90;;;;;;5133527;28;20047;-86
2022/05/11 09:17:36;;;;;;;0.10;0.10;;;17.80;99.90;;;;;;5133332;28;20848;-86
2022/05/11 09:20:17;;;;;;;0.10;0.10;;;17.80;99.90;;;;;;5133095;28;20508;-87
2022/05/11 09:23:04;;;;;;;0.00;0.00;;;17.90;99.90;;;;;;5133395;28;20044;-88
2022/05/11 09:25:37;;;;;;;0.05;0.05;;;17.80;99.90;;;;;;5132629;28;20051;-86
2022/05/11 09:28:18;;;;;;;0.10;0.10;;;18.00;99.90;;;;;;5132991;28;20097;-86
2022/05/11 09:31:03;;;;;;;0.00;0.00;;;18.20;99.90;;;;;;5132950;28;20027;-89
2022/05/11 09:33:33;;;;;;;0.00;0.00;;;18.30;99.90;;;;;;5132463;28;20047;-89
2022/05/11 09:36:03;;;;;;;0.10;0.10;;;18.60;99.90;;;;;;5149479;28;20516;-88
2022/05/11 09:38:40;;;;;;;0.70;0.20;;;18.60;99.90;;;;;;5132525;28;20043;-87
2022/05/11 09:41:22;;;;;;;0.00;0.00;;;18.40;99.90;;;;;;5132706;28;20126;-90
2022/05/11 09:43:58;;;;;;;0.13;0.13;;;18.30;99.90;;;;;;5149018;28;20043;-92
2022/05/11 09:46:35;;;;;;;0.00;0.00;;;18.40;99.90;;;;;;5132572;28;20043;-85
2022/05/11 09:49:13;;;;;;;0.00;0.00;;;18.40;99.90;;;;;;5150006;28;20043;-89
2022/05/11 09:51:46;;;;;;;0.17;0.13;;;18.30;99.90;;;;;;5132663;28;20063;-86
2022/05/11 09:54:18;;;;;;;0.10;0.10;;;18.50;99.90;;;;;;5115174;28;20064;-88
2022/05/11 09:56:59;;;;;;;0.08;0.08;;;18.80;99.90;;;;;;5129443;28;20077;-87
2022/05/11 09:59:45;;;;;;;0.00;0.00;;;19.00;99.90;;;;;;5104220;28;20032;-88
2022/05/11 10:02:32;;;;;;;;;;;19.20;99.90;;;;;;5125757;28;20553;-86
2022/05/11 10:05:13;;;;;;;0.10;0.10;;;19.00;99.90;;;;;;5092782;28;19927;-88
2022/05/11 10:07:52;;;;;;;0.13;0.10;;;19.00;99.90;;;;;;5091669;28;20067;-86
2022/05/11 10:10:46;;;;;;;0.03;0.03;;;18.90;99.90;;;;;;5092122;28;20079;-88
2022/05/11 10:13:21;;;;;;;0.05;0.05;;;18.70;99.90;;;;;;5091453;28;20409;-85
2022/05/11 10:21:50;;;;;;;0.03;0.03;;;18.90;99.90;;;;;;5096897;28;20044;-89
2022/05/11 10:24:19;;;;;;;0.00;0.00;;;18.80;99.90;;;;;;5094338;28;21762;-88
2022/05/11 10:27:03;;;;;;;1.27;0.45;;;19.10;99.90;;;;;;5098502;28;20039;-87
2022/05/11 10:29:32;;;;;;;2.92;0.20;;;19.30;99.90;;;;;;5105442;28;20374;-86
2022/05/11 10:32:06;;;;;;;0.00;0.00;;;19.30;99.90;;;;;;5110283;28;20489;-87
2022/05/11 10:35:04;;;;;;;0.00;0.00;;;19.40;99.90;;;;;;5111268;28;20040;-89
2022/05/11 10:37:34;;;;;;;1.75;0.10;;;19.60;99.90;;;;;;5106326;28;20106;-88
2022/05/11 10:40:27;;;;;;;0.10;0.10;;;19.60;99.90;;;;;;5111399;28;20051;-88
2022/05/11 10:43:32;;;;;;;0.00;0.00;;;19.60;99.90;;;;;;5103472;28;20036;-91
2022/05/11 10:46:30;;;;;;;0.65;0.15;;;19.60;99.90;;;;;;5068600;28;20052;-87
2022/05/11 10:49:21;;;;;;;0.10;0.10;;;19.50;99.90;;;;;;5106419;28;20052;-88
2022/05/11 10:52:06;;;;;;;0.00;0.00;;;19.40;99.90;;;;;;5102728;28;20515;-90
2022/05/11 10:55:06;;;;;;;0.20;0.13;;;19.30;99.90;;;;;;5120201;28;20530;-90
2022/05/11 10:58:14;;;;;;;0.00;0.00;;;19.10;99.90;;;;;;5106085;28;20044;-87
2022/05/11 11:00:47;;;;;;;0.00;0.00;;;19.00;99.90;;;;;;5111109;28;20797;-87
2022/05/11 11:03:31;;;;;;;0.20;0.20;;;19.00;99.90;;;;;;5092796;28;20045;-88
2022/05/11 11:09:13;;;;;;;0.00;0.00;;;19.40;99.90;;;;;;5107309;28;20497;-88
2022/05/11 11:12:16;;;;;;;0.15;0.13;;;19.30;99.90;;;;;;5091148;28;20040;-89
2022/05/11 11:14:49;;;;;;;0.10;0.10;;;19.50;99.90;;;;;;5111079;28;20043;-87
2022/05/11 11:17:21;;;;;;;0.10;0.05;;;19.80;99.90;;;;;;5110865;28;20378;-90
2022/05/11 11:19:51;;;;;;;0.10;0.10;;;20.10;99.90;;;;;;5110402;28;20539;-89
2022/05/11 11:22:18;;;;;;;0.03;0.03;;;20.10;98.90;;;;;;5108229;28;20043;-88
2022/05/11 11:25:10;;;;;;;0.00;0.00;;;20.30;99.40;;;;;;5105890;28;20036;-92
2022/05/11 11:28:02;;;;;;;0.00;0.00;;;20.50;98.40;;;;;;5100529;28;20404;-88
2022/05/11 11:30:29;;;;;;;0.20;0.20;;;20.40;97.40;;;;;;5103551;28;20044;-90
2022/05/11 11:33:15;;;;;;;0.00;0.00;;;20.60;97.70;;;;;;5090465;28;20036;-89
2022/05/11 11:36:05;;;;;;;0.20;0.20;;;20.70;96.40;;;;;;5090334;28;20044;-90
2022/05/11 11:38:41;;;;;;;0.10;0.10;;;20.80;96.40;;;;;;5097533;28;20044;-88
2022/05/11 11:41:20;;;;;;;0.00;0.00;;;21.00;97.10;;;;;;5119587;28;20076;-88
2022/05/11 11:43:54;;;;;;;0.00;0.00;;;20.80;95.10;;;;;;5090323;28;20079;-87
2022/05/11 11:46:42;;;;;;;0.03;0.00;;;20.70;96.50;;;;;;5090057;28;20040;-91
2022/05/11 11:49:18;;;;;;;0.25;0.20;;;20.80;95.80;;;;;;5090161;28;20039;-88
2022/05/11 11:51:52;;;;;;;0.43;0.25;;;20.80;95.40;;;;;;5090231;28;20036;-91
2022/05/11 11:54:37;;;;;;;0.00;0.00;;;20.70;95.10;;;;;;5106796;28;20390;-92
2022/05/11 11:57:24;;;;;;;0.35;0.10;;;20.70;95.10;;;;;;5093365;28;20492;-88
2022/05/11 11:59:57;;;;;;;0.00;0.00;;;20.70;96.00;;;;;;5094315;28;20044;-90
2022/05/11 12:02:40;;;;;;;0.00;0.00;;;20.90;96.30;;;;;;5095056;28;20110;-90
2022/05/11 12:05:27;;;;;;;0.00;0.00;;;20.80;95.40;;;;;;5094361;28;20047;-90
2022/05/11 12:15:01;;;;;;;0.15;0.15;;;20.70;96.80;;;;;;5110917;28;20135;-87
2022/05/11 12:16:53;;;;;;;0.20;0.20;;;21.00;95.90;;;;;;5097563;28;20047;-90
2022/05/11 12:19:24;;;;;;;0.25;0.25;;;21.00;95.40;;;;;;5094345;28;20504;-92
2022/05/11 12:21:58;;;;;;;0.35;0.15;;;20.80;94.80;;;;;;5093807;28;20044;-88
2022/05/11 12:24:40;;;;;;;0.50;0.32;;;20.60;95.10;;;;;;5094120;28;20037;-91
2022/05/11 12:27:31;;;;;;;1.45;0.20;;;20.60;94.70;;;;;;5094377;28;20033;-92
2022/05/11 12:30:04;;;;;;;0.00;0.00;;;20.80;95.00;;;;;;5110885;28;20394;-88
2022/05/11 12:32:33;;;;;;;0.30;0.20;;;20.70;94.30;;;;;;5099014;28;20577;-88
2022/05/11 12:35:18;;;;;;;0.90;0.15;;;20.70;93.90;;;;;;5113735;28;20043;-88
2022/05/11 12:38:37;;;;;;;0.43;0.10;;;20.90;94.80;;;;;;5114260;28;20043;-90
2022/05/11 12:41:13;;;;;;;0.20;0.20;;;20.80;95.20;;;;;;5081276;28;20051;-89
2022/05/11 12:43:49;;;;;;;2.00;0.25;;;20.90;94.90;;;;;;5114083;28;20036;-90
2022/05/11 12:46:17;;;;;;;0.15;0.08;;;21.00;93.80;;;;;;5114316;28;20036;-91
2022/05/11 12:48:56;;;;;;;0.10;0.10;;;21.00;93.20;;;;;;5115076;28;20044;-88
2022/05/11 12:51:42;;;;;;;0.05;0.05;;;21.20;93.50;;;;;;5131118;28;20485;-90
2022/05/11 12:54:18;;;;;;;0.00;0.00;;;21.20;93.10;;;;;;5126911;28;20090;-91
2022/05/11 12:57:00;;;;;;;0.10;0.10;;;21.30;93.30;;;;;;5094408;28;20043;-92
2022/05/11 12:59:29;;;;;;;0.03;0.03;;;21.00;92.50;;;;;;5094256;28;20093;-91
2022/05/11 13:02:18;;;;;;;1.30;0.10;;;20.90;92.90;;;;;;5093876;28;20090;-91
2022/05/11 13:05:00;;;;;;;0.00;0.00;;;20.80;93.30;;;;;;5094073;28;20127;-88
2022/05/11 13:07:35;;;;;;;0.00;0.00;;;20.90;94.20;;;;;;5110296;28;20523;-87
2022/05/11 13:10:05;;;;;;;0.00;0.00;;;21.00;93.30;;;;;;5110346;28;20039;-92
2022/05/11 13:12:33;;;;;;;0.03;0.03;;;21.10;93.10;;;;;;5093600;28;20044;-85
2022/05/11 13:15:01;;;;;;;0.22;0.20;;;21.30;93.90;;;;;;5092875;28;20072;-91
2022/05/11 13:17:36;;;;;;;0.43;0.22;;;21.40;94.00;;;;;;5093035;28;20041;-90
2022/05/11 13:20:12;;;;;;;0.50;0.13;;;21.60;92.40;;;;;;5092775;28;20032;-91
2022/05/11 13:22:40;;;;;;;1.98;0.20;;;21.60;92.70;;;;;;5092938;28;20033;-89
2022/05/11 13:25:08;;;;;;;0.00;0.00;;;21.30;92.50;;;;;;5078370;28;20119;-85
2022/05/11 13:27:45;;;;;;;0.00;0.00;;;21.20;92.40;;;;;;5103752;28;20040;-86
2022/05/11 13:30:27;;;;;;;0.20;0.20;;;21.00;93.20;;;;;;5100079;28;20531;-92
2022/05/11 13:33:15;;;;;;;0.10;0.10;;;21.00;93.40;;;;;;5118515;28;20040;-96
2022/05/11 13:35:42;;;;;;;0.30;0.13;;;21.10;93.60;;;;;;5110639;28;20062;-95
2022/05/11 13:38:09;;;;;;;0.13;0.10;;;21.20;92.60;;;;;;5087617;28;20044;-91
2022/05/11 13:40:37;;;;;;;2.45;0.28;;;21.00;93.00;;;;;;5113009;28;20032;-89
2022/05/11 13:43:25;;;;;;;0.00;0.00;;;21.20;93.50;;;;;;5092594;28;20059;-91
2022/05/11 13:46:10;;;;;;;0.10;0.10;;;21.10;92.70;;;;;;5097949;28;20072;-91
2022/05/11 13:48:45;;;;;;;0.00;0.00;;;21.10;93.90;;;;;;5093103;28;20044;-89
2022/05/11 13:51:20;;;;;;;0.98;0.13;;;20.80;94.00;;;;;;5096778;28;20105;-89
2022/05/11 13:53:49;;;;;;;0.00;0.00;;;20.90;93.40;;;;;;5112796;28;20504;-91